Time;durP1;ratioP1;P1;durP2;ratioP2;P2;SDS_P1;SDS_P2;PMS_P1;PMS_P2;Temp;Humidity;BMP_temperature;BMP_pressure;BME280_temperature;BME280_humidity;BME280_pressure;Samples;Min_cycle;Max_cycle;Signal;HPM_P1;HPM_P2
2022/07/30 00:01:43;;;;;;;5.53;5.03;;;;;;;28.03;37.61;95110.91;6110589;28;104740;-58
2022/07/30 00:04:46;;;;;;;4.97;4.57;;;;;;;27.98;37.86;95105.00;6109676;28;103705;-58
2022/07/30 00:07:51;;;;;;;5.43;4.67;;;;;;;27.92;37.80;95106.38;6110635;28;103901;-58
2022/07/30 00:10:54;;;;;;;6.40;4.63;;;;;;;27.89;37.51;95098.97;6098432;28;105006;-58
2022/07/30 00:13:57;;;;;;;5.30;4.90;;;;;;;27.88;37.27;95103.56;6113210;28;104968;-57
2022/07/30 00:17:00;;;;;;;4.70;4.40;;;;;;;27.98;37.03;95108.47;6106546;28;104635;-57
2022/07/30 00:20:06;;;;;;;5.50;5.00;;;;;;;28.07;36.92;95094.88;6096100;28;105025;-58
2022/07/30 00:23:10;;;;;;;5.10;4.60;;;;;;;28.17;37.24;95099.75;6107142;28;103937;-58
2022/07/30 00:26:14;;;;;;;5.10;4.70;;;;;;;28.24;37.05;95097.28;6105843;28;103772;-58
2022/07/30 00:29:17;;;;;;;4.30;4.00;;;;;;;28.25;36.51;95093.44;6109839;28;103779;-58
2022/07/30 00:32:20;;;;;;;4.20;3.90;;;;;;;28.26;36.22;95103.09;6100870;28;103948;-58
2022/07/30 00:35:23;;;;;;;5.17;4.87;;;;;;;28.27;36.00;95098.50;6097454;28;103616;-58
2022/07/30 00:38:30;;;;;;;4.47;4.17;;;;;;;28.24;36.58;95093.78;6110993;28;103618;-58
2022/07/30 00:41:36;;;;;;;4.97;4.57;;;;;;;28.14;36.78;95094.28;6119781;28;104002;-58
2022/07/30 00:44:40;;;;;;;4.50;4.20;;;;;;;28.05;36.28;95097.09;6083278;28;103668;-59
2022/07/30 00:47:43;;;;;;;4.40;4.10;;;;;;;27.97;36.89;95092.66;6105438;28;103761;-58
2022/07/30 00:50:46;;;;;;;4.53;4.23;;;;;;;27.88;36.59;95092.00;6110359;28;103872;-58
2022/07/30 00:53:51;;;;;;;4.60;4.30;;;;;;;27.80;36.51;95084.84;6111644;28;104816;-58
2022/07/30 00:56:54;;;;;;;4.10;3.80;;;;;;;27.79;37.17;95089.44;6108632;28;104875;-59
2022/07/30 00:59:58;;;;;;;4.70;4.40;;;;;;;27.74;37.09;95081.63;6113408;28;104757;-58
2022/07/30 01:03:03;;;;;;;4.80;4.40;;;;;;;27.70;37.05;95081.50;6113533;28;104424;-58
2022/07/30 01:06:06;;;;;;;5.23;4.73;;;;;;;27.64;36.83;95076.72;6104144;28;104683;-58
2022/07/30 01:09:17;;;;;;;4.87;4.57;;;;;;;27.68;36.98;95077.59;6112536;28;104394;-58
2022/07/30 01:12:24;;;;;;;4.50;4.20;;;;;;;27.81;36.87;95075.66;6114657;28;106270;-58
2022/07/30 01:15:28;;;;;;;4.23;3.93;;;;;;;27.88;36.90;95067.81;6114820;28;103765;-58
2022/07/30 01:22:00;;;;;;;4.80;4.40;;;;;;;28.08;36.51;95066.84;6113149;28;104147;-59
2022/07/30 01:25:11;;;;;;;4.60;4.20;;;;;;;28.09;36.66;95075.69;6107957;28;104051;-59
2022/07/30 01:28:20;;;;;;;6.33;4.50;;;;;;;28.17;36.26;95082.81;6105197;28;103913;-59
2022/07/30 01:31:27;;;;;;;4.07;3.87;;;;;;;28.12;36.61;95077.69;6113788;28;103766;-58
2022/07/30 01:34:34;;;;;;;4.50;4.17;;;;;;;27.98;37.02;95078.09;6113597;28;103662;-58
2022/07/30 01:37:39;;;;;;;4.70;4.30;;;;;;;27.83;37.31;95076.09;6113519;28;103880;-58
2022/07/30 01:40:44;;;;;;;4.70;4.40;;;;;;;27.77;37.21;95078.25;6104335;28;103824;-58
2022/07/30 01:43:50;;;;;;;4.83;4.43;;;;;;;27.73;37.42;95075.47;6115595;28;103715;-58
2022/07/30 01:46:55;;;;;;;4.90;4.60;;;;;;;27.72;36.95;95067.72;6113412;28;104871;-58
2022/07/30 01:50:00;;;;;;;4.70;4.40;;;;;;;27.72;37.53;95065.03;6113261;28;103804;-59
2022/07/30 01:53:03;;;;;;;4.80;4.50;;;;;;;27.69;37.24;95068.41;6105529;28;103716;-53
2022/07/30 01:56:09;;;;;;;4.90;4.60;;;;;;;27.65;37.70;95072.91;6109373;28;103745;-54
2022/07/30 01:59:18;;;;;;;5.23;4.73;;;;;;;27.70;37.89;95072.66;6099181;28;104789;-53
2022/07/30 02:02:21;;;;;;;5.17;4.77;;;;;;;27.80;37.50;95068.72;6116388;28;103760;-54
2022/07/30 02:05:27;;;;;;;5.00;4.60;;;;;;;27.91;37.30;95073.31;6101631;28;103855;-54
2022/07/30 02:08:38;;;;;;;4.60;4.30;;;;;;;27.96;37.44;95077.66;6108097;28;103763;-55
2022/07/30 02:15:17;;;;;;;5.27;4.77;;;;;;;28.08;36.70;95060.69;6089972;28;103585;-54
2022/07/30 02:18:26;;;;;;;6.27;4.60;;;;;;;28.07;36.85;95073.34;6117669;28;103760;-54
2022/07/30 02:21:33;;;;;;;6.13;4.37;;;;;;;28.05;37.27;95062.91;6117466;28;103680;-54
2022/07/30 02:24:42;;;;;;;5.00;4.60;;;;;;;27.96;37.45;95050.75;6116837;28;104647;-55
2022/07/30 02:27:50;;;;;;;4.33;4.03;;;;;;;27.86;37.27;95057.41;6117437;28;103750;-53
2022/07/30 02:31:01;;;;;;;5.27;4.80;;;;;;;27.72;37.83;95056.97;6118202;28;103718;-53
2022/07/30 02:34:21;;;;;;;5.00;4.60;;;;;;;27.63;37.44;95050.97;6119223;28;105155;-53
2022/07/30 02:37:26;;;;;;;5.07;4.67;;;;;;;27.57;37.59;95045.06;6116946;28;106631;-53
2022/07/30 02:40:47;;;;;;;4.47;4.17;;;;;;;27.58;37.98;95045.84;6118735;28;104600;-53
2022/07/30 02:43:52;;;;;;;5.70;4.73;;;;;;;27.57;37.81;95050.44;6112694;28;103905;-53
2022/07/30 02:46:58;;;;;;;4.83;4.43;;;;;;;27.51;38.34;95041.03;6117819;28;104026;-54
2022/07/30 02:50:09;;;;;;;5.30;4.83;;;;;;;27.55;37.94;95043.81;6117461;28;104500;-54
2022/07/30 02:53:15;;;;;;;5.13;4.63;;;;;;;27.51;37.88;95046.41;6115107;28;103797;-55
2022/07/30 02:56:21;;;;;;;5.10;4.70;;;;;;;27.61;37.66;95050.53;6116991;28;105751;-55
2022/07/30 02:59:26;;;;;;;5.13;4.73;;;;;;;27.74;37.81;95044.78;6105982;28;103973;-55
2022/07/30 03:02:32;;;;;;;4.20;3.93;;;;;;;27.85;37.27;95046.94;6114130;28;106695;-54
2022/07/30 03:05:37;;;;;;;5.17;4.50;;;;;;;27.93;37.52;95048.75;6115576;28;104777;-53
2022/07/30 03:08:41;;;;;;;5.17;4.53;;;;;;;27.94;37.27;95043.03;6114174;28;103816;-53
2022/07/30 03:11:45;;;;;;;4.97;4.47;;;;;;;27.99;37.91;95045.47;6102977;28;104087;-54
2022/07/30 03:14:48;;;;;;;4.70;4.30;;;;;;;27.89;37.71;95040.59;6113568;28;104104;-53
2022/07/30 03:17:54;;;;;;;5.10;4.30;;;;;;;27.81;37.99;95027.25;6113738;28;104311;-53
2022/07/30 03:20:59;;;;;;;4.53;4.23;;;;;;;27.73;38.13;95032.44;6116561;28;103611;-54
2022/07/30 03:24:05;;;;;;;4.57;4.27;;;;;;;27.67;38.08;95033.78;6116030;28;103911;-53
2022/07/30 03:27:09;;;;;;;4.90;4.60;;;;;;;27.60;38.60;95044.38;6117349;28;103846;-54
2022/07/30 03:30:14;;;;;;;4.90;4.37;;;;;;;27.52;38.20;95039.91;6117088;28;104074;-53
2022/07/30 03:33:20;;;;;;;4.97;4.53;;;;;;;27.45;38.86;95039.69;6116315;28;103931;-53
2022/07/30 03:36:24;;;;;;;4.53;4.23;;;;;;;27.43;38.69;95031.97;6117535;28;103420;-53
2022/07/30 03:39:28;;;;;;;5.30;4.90;;;;;;;27.45;38.51;95050.44;6117802;28;104057;-54
2022/07/30 03:42:33;;;;;;;5.33;4.93;;;;;;;27.44;39.05;95040.81;6117190;28;103813;-53
2022/07/30 03:45:37;;;;;;;6.47;5.00;;;;;;;27.57;38.29;95050.44;6114470;28;103750;-53
2022/07/30 03:48:42;;;;;;;5.33;4.93;;;;;;;27.65;38.53;95049.50;6100935;28;103807;-53
2022/07/30 03:51:46;;;;;;;5.73;5.33;;;;;;;27.77;38.58;95040.59;6093459;28;103971;-53
2022/07/30 03:54:50;;;;;;;6.37;5.87;;;;;;;27.85;38.36;95046.94;6093454;28;103939;-53
2022/07/30 03:57:54;;;;;;;5.70;5.40;;;;;;;27.86;38.21;95041.25;6091378;28;103637;-53
2022/07/30 04:00:57;;;;;;;5.30;4.90;;;;;;;27.97;37.91;95046.94;6092630;28;103612;-53
2022/07/30 04:04:09;;;;;;;5.20;4.90;;;;;;;27.90;37.64;95041.38;6112449;28;104462;-54
2022/07/30 04:07:12;;;;;;;5.33;4.93;;;;;;;27.82;38.05;95051.13;6103143;28;103806;-53
2022/07/30 04:10:16;;;;;;;5.17;4.73;;;;;;;27.72;38.09;95051.59;6097948;28;103932;-54
2022/07/30 04:13:19;;;;;;;4.93;4.60;;;;;;;27.68;38.24;95048.03;6114734;28;104036;-54
2022/07/30 04:16:29;;;;;;;5.67;5.17;;;;;;;27.67;38.60;95054.53;6112084;28;104256;-54
2022/07/30 04:19:50;;;;;;;6.30;4.83;;;;;;;27.58;38.28;95054.69;6101226;28;103779;-54
2022/07/30 04:22:57;;;;;;;5.67;4.90;;;;;;;27.55;38.91;95060.72;6115011;28;104276;-54
2022/07/30 04:26:01;;;;;;;7.20;4.80;;;;;;;27.39;38.99;95060.66;6111308;28;103712;-55
2022/07/30 04:29:07;;;;;;;7.80;5.20;;;;;;;27.48;38.98;95054.38;6107162;28;103903;-56
2022/07/30 04:32:12;;;;;;;6.00;5.47;;;;;;;27.09;39.22;95064.72;6104601;28;103099;-57
2022/07/30 04:35:17;;;;;;;8.83;5.10;;;;;;;26.95;39.68;95057.00;6110978;28;103911;-56
2022/07/30 04:38:40;;;;;;;6.10;5.70;;;;;;;27.17;39.96;95058.41;6103402;28;105827;-56
2022/07/30 04:41:43;;;;;;;6.73;6.03;;;;;;;27.16;40.19;95056.84;6100896;28;103673;-59
2022/07/30 04:44:52;;;;;;;6.10;5.60;;;;;;;27.34;39.41;95055.50;6112002;28;104078;-55
2022/07/30 04:47:55;;;;;;;6.30;5.80;;;;;;;27.50;39.81;95057.50;6110490;28;103629;-55
2022/07/30 04:51:05;;;;;;;6.93;6.23;;;;;;;27.84;39.53;95064.22;6111227;28;104801;-55
2022/07/30 04:54:10;;;;;;;7.63;6.87;;;;;;;28.05;39.51;95068.28;6103061;28;103819;-54
2022/07/30 04:57:19;;;;;;;7.03;6.40;;;;;;;28.19;39.62;95065.22;6111452;28;103664;-56
2022/07/30 05:00:22;;;;;;;14.70;9.97;;;;;;;28.24;39.85;95069.56;6110197;28;103807;-54
2022/07/30 05:03:26;;;;;;;12.07;10.13;;;;;;;28.36;38.74;95072.19;6108337;28;104931;-59
2022/07/30 05:06:31;;;;;;;12.73;10.43;;;;;;;28.38;39.34;95058.38;6101439;28;104945;-56
2022/07/30 05:09:35;;;;;;;8.63;7.83;;;;;;;27.96;40.20;95062.28;6110674;28;103777;-56
2022/07/30 05:12:38;;;;;;;8.70;7.90;;;;;;;27.71;40.73;95058.88;6113860;28;102934;-55
2022/07/30 05:15:43;;;;;;;11.33;7.80;;;;;;;27.52;41.18;95055.25;6099188;28;103763;-56
2022/07/30 05:18:46;;;;;;;8.13;7.33;;;;;;;27.43;41.48;95056.16;6110271;28;103764;-54
2022/07/30 05:21:51;;;;;;;6.93;6.40;;;;;;;27.32;42.33;95059.66;6110222;28;104732;-54
2022/07/30 05:24:54;;;;;;;8.23;7.40;;;;;;;27.22;41.51;95060.88;6106880;28;103861;-54
2022/07/30 05:28:00;;;;;;;6.90;6.47;;;;;;;27.27;41.65;95058.00;6089303;28;104008;-55
2022/07/30 05:31:03;;;;;;;7.00;6.40;;;;;;;27.21;41.76;95067.34;6110640;28;104422;-54
2022/07/30 05:34:10;;;;;;;6.90;6.37;;;;;;;27.24;41.57;95061.34;6114942;28;103779;-55
2022/07/30 05:37:15;;;;;;;7.20;6.50;;;;;;;27.20;41.74;95063.09;6105731;28;103791;-56
2022/07/30 05:40:18;;;;;;;10.80;6.50;;;;;;;27.38;42.77;95053.69;6106925;28;103453;-55
2022/07/30 05:43:21;;;;;;;6.93;6.43;;;;;;;27.64;42.43;95065.97;6113880;28;103846;-56
2022/07/30 05:46:24;;;;;;;6.80;6.20;;;;;;;27.58;42.37;95064.66;6112412;28;105001;-58
2022/07/30 05:49:27;;;;;;;10.80;6.70;;;;;;;27.51;41.99;95056.38;6105500;28;103321;-54
2022/07/30 05:52:32;;;;;;;12.83;6.60;;;;;;;27.48;43.31;95075.88;6113827;28;103965;-58
2022/07/30 05:55:35;;;;;;;8.57;6.97;;;;;;;27.51;42.30;95067.91;6112345;28;103974;-56
2022/07/30 05:58:38;;;;;;;8.43;7.47;;;;;;;27.49;42.16;95062.09;6128540;28;104977;-54
2022/07/30 06:01:41;;;;;;;8.90;6.70;;;;;;;27.34;43.14;95063.56;6110694;28;104415;-55
2022/07/30 06:04:45;;;;;;;7.57;6.80;;;;;;;27.43;42.43;95058.84;6115058;28;104715;-53
2022/07/30 06:07:49;;;;;;;6.93;6.30;;;;;;;27.30;43.03;95064.59;6112830;28;103800;-54
2022/07/30 06:10:52;;;;;;;9.13;6.77;;;;;;;27.49;42.05;95064.00;6115257;28;103909;-54
2022/07/30 06:13:55;;;;;;;11.50;7.50;;;;;;;27.54;41.86;95064.53;6103208;28;104002;-58
2022/07/30 06:16:59;;;;;;;7.67;6.97;;;;;;;27.54;42.30;95067.22;6120714;28;103989;-59
2022/07/30 06:20:02;;;;;;;9.70;6.60;;;;;;;27.44;42.43;95068.50;6107848;28;104802;-57
2022/07/30 06:23:07;;;;;;;9.20;7.00;;;;;;;27.38;42.56;95063.66;6106002;28;104070;-57
2022/07/30 06:26:10;;;;;;;7.50;6.40;;;;;;;27.52;41.65;95066.00;6108863;28;103898;-57
2022/07/30 06:29:13;;;;;;;7.17;6.30;;;;;;;27.72;41.63;95059.66;6111995;28;103510;-57
2022/07/30 06:32:18;;;;;;;7.07;6.47;;;;;;;28.00;41.58;95057.00;6112387;28;105251;-59
2022/07/30 06:35:21;;;;;;;13.13;7.70;;;;;;;28.13;41.08;95061.22;6098595;28;104017;-58
2022/07/30 06:38:26;;;;;;;7.70;7.10;;;;;;;28.19;40.60;95059.03;6109729;28;104786;-56
2022/07/30 06:41:29;;;;;;;12.00;7.37;;;;;;;28.20;40.51;95060.59;6095370;28;105000;-57
2022/07/30 06:44:32;;;;;;;6.80;6.20;;;;;;;28.15;40.75;95055.47;6111282;28;103786;-56
2022/07/30 06:47:35;;;;;;;6.23;5.63;;;;;;;28.19;40.96;95048.28;6094282;28;104642;-55
2022/07/30 06:50:40;;;;;;;8.00;6.40;;;;;;;28.34;40.93;95051.00;6106885;28;104897;-56
2022/07/30 06:53:45;;;;;;;7.10;6.40;;;;;;;28.39;41.04;95041.88;6113941;28;104992;-56
2022/07/30 06:56:48;;;;;;;9.07;6.20;;;;;;;28.46;40.47;95046.69;6110129;28;104710;-57
2022/07/30 06:59:51;;;;;;;6.80;6.30;;;;;;;28.33;40.78;95052.13;6108739;28;103822;-56
2022/07/30 07:02:59;;;;;;;6.87;6.33;;;;;;;28.48;40.45;95045.22;6114134;28;103661;-57
2022/07/30 07:06:04;;;;;;;13.40;7.77;;;;;;;28.60;39.78;95036.28;6113553;28;103935;-55
2022/07/30 07:09:08;;;;;;;7.93;7.23;;;;;;;28.50;40.05;95036.78;6102770;28;105031;-57
2022/07/30 07:12:11;;;;;;;7.70;6.47;;;;;;;28.73;40.50;95034.25;6112329;28;103890;-58
2022/07/30 07:15:14;;;;;;;6.27;5.57;;;;;;;28.83;38.74;95031.03;6112084;28;103929;-56
2022/07/30 07:18:17;;;;;;;5.63;5.23;;;;;;;28.81;39.56;95020.63;6111643;28;104786;-56
2022/07/30 07:21:21;;;;;;;5.70;5.30;;;;;;;28.87;39.08;95026.50;6101737;28;104627;-57
2022/07/30 07:24:25;;;;;;;5.83;5.43;;;;;;;28.87;38.33;95023.81;6091777;28;104335;-57
2022/07/30 07:27:28;;;;;;;7.03;6.43;;;;;;;28.93;38.39;95011.66;6112234;28;103731;-57
2022/07/30 07:30:31;;;;;;;5.73;5.23;;;;;;;29.05;38.00;95016.16;6098409;28;103712;-57
2022/07/30 07:33:35;;;;;;;5.20;4.80;;;;;;;29.12;37.21;95016.34;6093247;28;103628;-56
2022/07/30 07:36:38;;;;;;;6.20;5.70;;;;;;;29.15;37.09;95013.72;6113577;28;105003;-55
2022/07/30 07:39:43;;;;;;;6.30;5.33;;;;;;;29.24;37.36;95016.22;6113073;28;107341;-57
2022/07/30 07:42:46;;;;;;;8.17;5.90;;;;;;;29.17;37.13;95010.66;6102623;28;104223;-55
2022/07/30 07:45:49;;;;;;;7.87;7.27;;;;;;;29.20;37.58;95016.13;6090874;28;103827;-56
2022/07/30 07:48:52;;;;;;;7.40;6.83;;;;;;;29.20;37.79;95004.56;6108034;28;104608;-56
2022/07/30 07:51:56;;;;;;;8.87;8.17;;;;;;;29.21;38.08;95012.31;6112674;28;103745;-56
2022/07/30 07:55:00;;;;;;;6.63;6.03;;;;;;;29.40;37.01;95008.06;6102643;28;103624;-56
2022/07/30 07:58:05;;;;;;;6.80;6.33;;;;;;;29.35;37.07;95003.75;6113013;28;104273;-55
2022/07/30 08:01:08;;;;;;;7.07;6.27;;;;;;;29.46;37.17;95006.66;6112182;28;104977;-56
2022/07/30 08:04:12;;;;;;;6.97;6.27;;;;;;;29.31;37.92;95002.09;6110950;28;104749;-57
2022/07/30 08:07:15;;;;;;;7.13;6.50;;;;;;;29.23;38.21;94999.28;6096377;28;103733;-56
2022/07/30 08:10:19;;;;;;;6.00;5.60;;;;;;;29.18;36.88;94991.44;6110804;28;104922;-57
2022/07/30 08:13:23;;;;;;;8.40;6.60;;;;;;;29.08;38.05;94999.31;6111191;28;103525;-57
2022/07/30 08:16:46;;;;;;;9.57;6.83;;;;;;;29.15;38.66;94994.84;6102063;28;106644;-57
2022/07/30 08:19:49;;;;;;;7.43;6.70;;;;;;;29.17;38.80;94995.28;6109367;28;103897;-57
2022/07/30 08:22:52;;;;;;;7.23;6.63;;;;;;;29.21;38.33;94996.13;6108145;28;105061;-56
2022/07/30 08:26:00;;;;;;;16.93;7.20;;;;;;;29.28;38.64;95000.13;6111341;28;104432;-56
2022/07/30 08:29:04;;;;;;;126.40;17.20;;;;;;;29.18;38.61;94990.66;6100793;28;103652;-57
2022/07/30 08:32:07;;;;;;;8.50;5.73;;;;;;;29.24;37.38;94990.06;6110602;28;103921;-57
2022/07/30 08:35:10;;;;;;;6.63;5.93;;;;;;;29.52;36.35;94989.84;6107377;28;103946;-57
2022/07/30 08:38:13;;;;;;;6.63;6.07;;;;;;;29.72;36.60;94985.25;6109213;28;103876;-57
2022/07/30 08:41:20;;;;;;;9.10;8.47;;;;;;;29.88;37.37;94987.06;6102343;28;105048;-56
2022/07/30 08:44:23;;;;;;;10.20;9.50;;;;;;;29.81;37.48;94990.44;6101570;28;104919;-58
2022/07/30 08:47:32;;;;;;;9.03;8.33;;;;;;;29.77;37.21;94976.09;6110504;28;104170;-56
2022/07/30 08:50:35;;;;;;;6.67;6.17;;;;;;;29.57;37.32;94977.19;6103208;28;103739;-56
2022/07/30 08:53:39;;;;;;;5.73;5.33;;;;;;;29.52;37.19;94973.66;6105787;28;104894;-56
2022/07/30 08:56:44;;;;;;;6.53;6.03;;;;;;;29.81;37.26;94971.53;6110110;28;103759;-57
2022/07/30 08:59:50;;;;;;;8.13;7.37;;;;;;;29.86;35.66;94965.06;6109916;28;103425;-57
2022/07/30 09:03:02;;;;;;;6.00;5.60;;;;;;;29.86;35.36;94965.06;6097663;28;103805;-56
2022/07/30 09:06:06;;;;;;;7.30;6.80;;;;;;;30.02;36.09;94963.03;6107830;28;105048;-56
2022/07/30 09:09:09;;;;;;;7.40;6.90;;;;;;;30.05;36.54;94962.31;6114713;28;103745;-57
2022/07/30 09:12:36;;;;;;;9.17;8.47;;;;;;;29.95;37.12;94954.84;6114220;28;104986;-57
2022/07/30 09:15:40;;;;;;;9.23;8.53;;;;;;;29.87;37.96;94947.75;6104582;28;103588;-58
2022/07/30 09:18:43;;;;;;;7.37;6.77;;;;;;;29.53;37.47;94939.38;6109063;28;104552;-58
2022/07/30 09:21:57;;;;;;;7.03;6.33;;;;;;;29.11;37.52;94936.63;6114789;28;103934;-58
2022/07/30 09:25:00;;;;;;;6.40;5.80;;;;;;;29.31;37.55;94934.72;6101679;28;103916;-58
2022/07/30 09:28:05;;;;;;;6.63;6.10;;;;;;;29.30;37.72;94933.94;6114253;28;103988;-58
2022/07/30 09:31:19;;;;;;;8.40;6.53;;;;;;;29.18;38.69;94921.38;6113107;28;103728;-57
2022/07/30 09:34:26;;;;;;;6.20;5.80;;;;;;;29.39;37.73;94931.78;6111635;28;103754;-57
2022/07/30 09:37:31;;;;;;;6.63;6.03;;;;;;;29.27;37.62;94923.09;6094446;28;103738;-57
2022/07/30 09:40:35;;;;;;;7.70;7.10;;;;;;;29.60;37.71;94920.66;6124382;28;104184;-57
2022/07/30 09:43:45;;;;;;;22.27;20.47;;;;;;;29.82;37.44;94916.44;6110570;28;104885;-57
2022/07/30 09:46:50;;;;;;;9.60;8.83;;;;;;;29.84;36.64;94917.63;6107679;28;104981;-56
2022/07/30 09:50:03;;;;;;;8.07;7.37;;;;;;;29.77;36.38;94914.03;6108640;28;103816;-56
2022/07/30 09:53:10;;;;;;;6.57;5.80;;;;;;;29.66;36.17;94913.06;6110575;28;106844;-58
2022/07/30 09:56:27;;;;;;;7.50;6.13;;;;;;;29.94;36.23;94912.78;6113777;28;103716;-58
2022/07/30 09:59:33;;;;;;;6.37;5.70;;;;;;;30.12;35.06;94900.38;6089907;28;103693;-58
2022/07/30 10:02:37;;;;;;;6.80;6.27;;;;;;;30.06;36.12;94901.81;6111759;28;104655;-58
2022/07/30 10:05:50;;;;;;;6.17;5.77;;;;;;;30.25;35.15;94907.19;6112099;28;103731;-58
2022/07/30 10:08:54;;;;;;;5.87;5.43;;;;;;;30.31;34.16;94903.03;6112895;28;104134;-57
2022/07/30 10:11:59;;;;;;;7.70;7.10;;;;;;;30.23;35.19;94893.25;6103223;28;104185;-57
2022/07/30 10:15:07;;;;;;;6.13;5.70;;;;;;;29.99;35.51;94888.97;6109886;28;103904;-57
2022/07/30 10:18:11;;;;;;;6.30;5.80;;;;;;;30.24;34.77;94878.63;6113089;28;105362;-57
2022/07/30 10:21:15;;;;;;;6.50;6.10;;;;;;;30.29;34.28;94886.41;6107450;28;103675;-58
2022/07/30 10:24:20;;;;;;;8.10;7.40;;;;;;;30.15;35.45;94878.06;6103340;28;103702;-59
2022/07/30 10:27:31;;;;;;;7.53;7.03;;;;;;;30.29;35.91;94882.94;6111887;28;104185;-56
2022/07/30 10:30:36;;;;;;;7.93;7.33;;;;;;;30.19;34.95;94876.22;6112873;28;104959;-57
2022/07/30 10:33:41;;;;;;;8.63;7.93;;;;;;;30.24;35.29;94872.41;6103051;28;105735;-57
2022/07/30 10:36:52;;;;;;;8.20;7.40;;;;;;;30.02;36.14;94863.19;6112726;28;103707;-57
2022/07/30 10:40:00;;;;;;;8.30;7.60;;;;;;;30.14;35.67;94863.78;6119809;28;103845;-57
2022/07/30 10:43:24;;;;;;;7.97;7.37;;;;;;;30.15;34.23;94861.84;6121280;28;103712;-55
2022/07/30 10:46:47;;;;;;;8.10;7.37;;;;;;;30.17;35.55;94856.09;6106483;28;103998;-57
2022/07/30 10:50:10;;;;;;;7.50;6.90;;;;;;;30.32;35.45;94850.56;6123526;28;103560;-57
2022/07/30 10:53:32;;;;;;;8.80;7.97;;;;;;;30.45;35.09;94844.97;6113190;28;104002;-57
2022/07/30 10:56:37;;;;;;;8.73;8.13;;;;;;;30.43;34.16;94848.03;6106321;28;105057;-56
2022/07/30 11:00:10;;;;;;;8.90;8.20;;;;;;;30.46;33.66;94844.59;6111787;28;103908;-55
2022/07/30 11:03:22;;;;;;;10.13;9.43;;;;;;;30.33;34.82;94843.25;6106047;28;103722;-57
2022/07/30 11:06:26;;;;;;;8.50;8.00;;;;;;;30.34;34.83;94848.28;6106794;28;104687;-57
2022/07/30 11:09:36;;;;;;;10.37;9.67;;;;;;;30.45;34.40;94832.25;6106150;28;103860;-56
2022/07/30 11:12:54;;;;;;;10.10;9.40;;;;;;;30.45;34.47;94826.84;6107832;28;103703;-58
2022/07/30 11:15:59;;;;;;;9.50;8.80;;;;;;;30.49;33.53;94830.38;6099057;28;103740;-57
2022/07/30 11:19:10;;;;;;;9.40;8.70;;;;;;;30.49;33.04;94824.19;6113799;28;104944;-57
2022/07/30 11:22:37;;;;;;;9.60;8.90;;;;;;;30.62;33.70;94820.13;6120989;28;103731;-57
2022/07/30 11:25:46;;;;;;;9.80;9.10;;;;;;;30.43;34.78;94813.72;6109413;28;106044;-57
2022/07/30 11:29:01;;;;;;;9.60;8.67;;;;;;;30.48;34.21;94814.53;6093028;28;103907;-56
2022/07/30 11:32:29;;;;;;;9.87;9.17;;;;;;;30.31;34.10;94808.53;6084643;28;103677;-56
2022/07/30 11:35:38;;;;;;;9.10;8.50;;;;;;;30.27;34.46;94802.28;6107758;28;103732;-57
2022/07/30 11:38:54;;;;;;;9.90;9.20;;;;;;;30.13;35.02;94797.44;6108679;28;106005;-57
2022/07/30 11:42:35;;;;;;;10.27;9.53;;;;;;;29.97;34.92;94801.44;6100715;28;104687;-57
2022/07/30 11:45:39;;;;;;;8.50;7.90;;;;;;;29.95;34.47;94796.41;6108206;28;103894;-58
2022/07/30 11:48:54;;;;;;;8.57;7.97;;;;;;;29.94;35.04;94791.38;6109161;28;105208;-57
2022/07/30 11:51:58;;;;;;;9.00;8.30;;;;;;;29.94;35.48;94781.34;6106052;28;103708;-57
2022/07/30 11:55:04;;;;;;;8.87;8.20;;;;;;;29.89;35.31;94783.56;6102321;28;104659;-56
2022/07/30 11:58:09;;;;;;;10.50;9.70;;;;;;;29.98;35.30;94778.69;6109494;28;103679;-58
2022/07/30 12:01:13;;;;;;;8.50;7.80;;;;;;;30.18;34.50;94774.78;6110572;28;103905;-57
2022/07/30 12:04:17;;;;;;;9.07;8.17;;;;;;;30.25;34.53;94768.72;6097506;28;103987;-57
2022/07/30 12:07:24;;;;;;;8.90;8.20;;;;;;;30.32;34.78;94771.50;6109773;28;103739;-57
2022/07/30 12:10:27;;;;;;;8.90;8.10;;;;;;;30.35;34.92;94766.13;6110068;28;103522;-57
2022/07/30 12:13:31;;;;;;;9.30;8.50;;;;;;;30.34;35.00;94759.19;6106689;28;104074;-55
2022/07/30 12:16:51;;;;;;;9.33;8.63;;;;;;;30.36;35.55;94764.22;6100877;28;104006;-57
2022/07/30 12:19:54;;;;;;;9.00;8.40;;;;;;;30.46;34.59;94768.22;6111278;28;104190;-58
2022/07/30 12:22:59;;;;;;;8.10;7.60;;;;;;;30.49;34.19;94760.13;6106055;28;103949;-57
2022/07/30 12:26:03;;;;;;;8.30;7.80;;;;;;;30.50;34.59;94760.91;6104263;28;103924;-58
2022/07/30 12:29:08;;;;;;;8.70;7.90;;;;;;;30.59;33.71;94742.53;6104678;28;103953;-57
2022/07/30 12:32:12;;;;;;;9.43;8.70;;;;;;;30.47;34.31;94751.63;6110732;28;103632;-57
2022/07/30 12:35:15;;;;;;;8.50;7.90;;;;;;;30.33;34.50;94746.81;6106068;28;104028;-57
2022/07/30 12:38:20;;;;;;;7.53;7.00;;;;;;;30.31;34.73;94730.22;6099948;28;103629;-57
2022/07/30 12:41:40;;;;;;;7.43;6.93;;;;;;;30.21;34.93;94728.16;6110508;28;104879;-55
2022/07/30 12:44:47;;;;;;;8.00;7.40;;;;;;;30.19;34.67;94726.97;6104754;28;103950;-56
2022/07/30 12:47:51;;;;;;;7.80;7.30;;;;;;;30.09;34.66;94709.47;6108696;28;103821;-56
2022/07/30 12:51:04;;;;;;;7.87;7.37;;;;;;;30.05;34.57;94711.31;6099075;28;104920;-56
2022/07/30 12:54:20;;;;;;;7.70;7.20;;;;;;;30.08;34.92;94707.91;6105978;28;104838;-56
2022/07/30 12:57:23;;;;;;;8.87;8.20;;;;;;;30.20;34.59;94698.81;6109367;28;103791;-56
2022/07/30 13:00:28;;;;;;;8.43;7.73;;;;;;;30.30;35.05;94698.97;6102090;28;103847;-57
2022/07/30 13:03:38;;;;;;;8.83;8.00;;;;;;;30.33;35.42;94695.53;6101921;28;104321;-54
2022/07/30 13:06:42;;;;;;;8.63;7.93;;;;;;;30.41;34.46;94689.06;6105986;28;103638;-57
2022/07/30 13:09:46;;;;;;;7.80;7.30;;;;;;;30.38;34.81;94686.31;6106319;28;103689;-57
2022/07/30 13:16:34;;;;;;;8.27;7.60;;;;;;;30.51;34.00;94676.81;6081376;28;104946;-55
2022/07/30 13:19:39;;;;;;;8.67;7.90;;;;;;;30.57;33.95;94679.97;6104209;28;103801;-57
2022/07/30 13:22:45;;;;;;;9.03;8.43;;;;;;;30.55;33.62;94672.22;6091938;28;104892;-57
2022/07/30 13:25:49;;;;;;;8.00;7.40;;;;;;;30.51;34.08;94670.66;6106014;28;103548;-57
2022/07/30 13:28:53;;;;;;;8.27;7.07;;;;;;;30.34;34.26;94663.91;6108260;28;105382;-56
2022/07/30 13:32:00;;;;;;;7.27;6.57;;;;;;;30.28;34.30;94674.25;6109111;28;103491;-57
2022/07/30 13:35:04;;;;;;;7.00;6.50;;;;;;;30.20;34.63;94664.50;6094158;28;103898;-57
2022/07/30 13:38:08;;;;;;;7.27;6.67;;;;;;;30.22;34.20;94669.53;6108300;28;105019;-57
2022/07/30 13:41:15;;;;;;;7.03;6.43;;;;;;;30.15;35.16;94670.19;6107097;28;104651;-57
2022/07/30 13:44:18;;;;;;;6.90;6.40;;;;;;;30.08;34.88;94670.13;6102855;28;105115;-56
2022/07/30 13:47:21;;;;;;;7.97;7.47;;;;;;;30.06;35.20;94669.69;6098842;28;104522;-57
2022/07/30 13:50:24;;;;;;;8.37;7.47;;;;;;;30.02;34.63;94672.34;6108715;28;104469;-57
2022/07/30 13:53:28;;;;;;;7.93;7.37;;;;;;;30.17;34.38;94661.72;6105379;28;104635;-56
2022/07/30 13:56:32;;;;;;;7.77;7.17;;;;;;;30.20;35.25;94663.72;6105714;28;104305;-56
2022/07/30 13:59:42;;;;;;;7.23;6.70;;;;;;;30.36;34.63;94664.31;6110367;28;103862;-56
2022/07/30 14:02:46;;;;;;;8.03;7.30;;;;;;;30.41;34.42;94670.16;6108893;28;104770;-57
2022/07/30 14:05:49;;;;;;;8.23;7.73;;;;;;;30.46;34.43;94669.06;6111162;28;104328;-57
2022/07/30 14:08:52;;;;;;;8.47;7.80;;;;;;;30.48;34.09;94657.88;6101971;28;104301;-57
2022/07/30 14:11:56;;;;;;;7.97;7.47;;;;;;;30.51;33.70;94665.25;6113601;28;104747;-57
2022/07/30 14:15:00;;;;;;;9.13;8.20;;;;;;;30.48;34.22;94658.66;6107325;28;103569;-57
2022/07/30 14:18:03;;;;;;;9.93;9.13;;;;;;;30.46;34.12;94658.25;6104199;28;103837;-56
2022/07/30 14:21:06;;;;;;;8.87;8.13;;;;;;;30.53;33.65;94662.94;6099636;28;104070;-55
2022/07/30 14:24:10;;;;;;;9.87;7.40;;;;;;;30.50;33.72;94650.97;6108738;28;103814;-56
2022/07/30 14:27:18;;;;;;;8.53;7.60;;;;;;;30.36;33.72;94638.06;6112400;28;104829;-55
2022/07/30 14:30:22;;;;;;;7.10;6.50;;;;;;;30.20;33.87;94634.81;6107233;28;103935;-55
2022/07/30 14:33:25;;;;;;;8.03;7.13;;;;;;;30.21;34.47;94639.06;6103920;28;104931;-56
2022/07/30 14:36:29;;;;;;;8.83;7.50;;;;;;;30.17;34.44;94629.34;6110507;28;103729;-56